EFW4KJ EGKK-LPMA
Flight info
| Callsign | EFW4KJ |
|---|---|
| Flight time | N/A |
| Altitude | 33000 |
| Route | IMVUR1Z IMVUR N63 SAM M195 LORKU DCT POZOF DCT LOTEE DCT PINEK DCT VERAM DCT TELMU DCT PECKY DCT LIDRO LIDRO1P |
| Aircraft | A321/M-SDE3FGIJ1KRWXY/SB1 |
Departure
| Time | N/A |
|---|---|
| Airport | London Gatwick Airport (EGKK) |
Arrival
| Time | 2026-05-04 13:37 |
|---|---|
| Airport | Cristiano Ronaldo International Airport (LPMA) |
| Time | Latitude | Longitude | Altitude | Speed | Heading |
|---|---|---|---|---|---|
| 2026-05-04 11:10 | 46.07989 | -4.92573 | 33033 ft | 429 kts | 204° |
| 2026-05-04 11:12 | 45.86297 | -5.06811 | 33034 ft | 429 kts | 204° |
| 2026-05-04 11:12 | 45.80863 | -5.10360 | 33030 ft | 429 kts | 204° |
| 2026-05-04 11:13 | 45.75432 | -5.13901 | 33044 ft | 429 kts | 204° |
| 2026-05-04 11:13 | 45.70039 | -5.17409 | 33038 ft | 429 kts | 204° |
| 2026-05-04 11:14 | 45.64606 | -5.20930 | 33036 ft | 429 kts | 204° |
| 2026-05-04 11:16 | 45.42924 | -5.34915 | 33028 ft | 428 kts | 204° |
| 2026-05-04 11:16 | 45.37493 | -5.38402 | 33035 ft | 428 kts | 204° |
| 2026-05-04 11:17 | 45.32057 | -5.41880 | 33057 ft | 428 kts | 204° |
| 2026-05-04 11:19 | 45.10259 | -5.55754 | 33042 ft | 431 kts | 204° |
| 2026-05-04 11:19 | 45.04821 | -5.59197 | 33036 ft | 431 kts | 205° |
| 2026-05-04 11:20 | 44.99355 | -5.62661 | 33042 ft | 431 kts | 205° |
| 2026-05-04 11:20 | 44.93882 | -5.66124 | 33047 ft | 431 kts | 205° |
| 2026-05-04 11:22 | 44.72009 | -5.79858 | 33053 ft | 431 kts | 205° |
| 2026-05-04 11:23 | 44.66551 | -5.83338 | 33051 ft | 430 kts | 209° |
| 2026-05-04 11:25 | 44.49663 | -6.00521 | 33052 ft | 430 kts | 217° |
| 2026-05-04 11:25 | 44.44851 | -6.05500 | 33053 ft | 430 kts | 217° |
| 2026-05-04 11:27 | 44.23199 | -6.27768 | 33056 ft | 430 kts | 217° |
| 2026-05-04 11:28 | 44.18381 | -6.32687 | 33062 ft | 430 kts | 217° |
| 2026-05-04 11:28 | 44.13590 | -6.37571 | 33064 ft | 430 kts | 217° |
| 2026-05-04 11:29 | 44.08766 | -6.42485 | 33066 ft | 430 kts | 217° |
| 2026-05-04 11:29 | 44.03942 | -6.47399 | 33067 ft | 430 kts | 217° |
| 2026-05-04 11:33 | 43.70188 | -6.81425 | 33066 ft | 429 kts | 217° |
| 2026-05-04 11:33 | 43.65353 | -6.86250 | 33076 ft | 429 kts | 217° |
| 2026-05-04 11:34 | 43.60517 | -6.91070 | 33039 ft | 429 kts | 217° |
| 2026-05-04 11:34 | 43.55708 | -6.95853 | 33048 ft | 429 kts | 217° |
| 2026-05-04 11:35 | 43.50871 | -7.00661 | 33061 ft | 429 kts | 217° |
| 2026-05-04 11:35 | 43.46028 | -7.05472 | 33063 ft | 429 kts | 217° |
| 2026-05-04 11:36 | 43.41180 | -7.10273 | 33064 ft | 429 kts | 217° |
| 2026-05-04 11:36 | 43.36358 | -7.15026 | 33061 ft | 429 kts | 218° |
| 2026-05-04 11:37 | 43.31505 | -7.19805 | 33070 ft | 429 kts | 218° |
| 2026-05-04 11:37 | 43.26655 | -7.24581 | 33081 ft | 429 kts | 218° |
| 2026-05-04 11:38 | 43.21795 | -7.29359 | 33079 ft | 430 kts | 218° |
| 2026-05-04 11:38 | 43.16958 | -7.34092 | 33059 ft | 430 kts | 218° |
| 2026-05-04 11:39 | 43.12093 | -7.38846 | 33078 ft | 429 kts | 218° |
| 2026-05-04 11:41 | 42.95099 | -7.55384 | 33060 ft | 429 kts | 218° |
| 2026-05-04 11:41 | 42.90247 | -7.60105 | 33082 ft | 428 kts | 218° |
| 2026-05-04 11:42 | 42.85383 | -7.64815 | 33086 ft | 429 kts | 218° |
| 2026-05-04 11:42 | 42.80546 | -7.69473 | 33086 ft | 429 kts | 218° |
| 2026-05-04 11:43 | 42.75674 | -7.74157 | 33065 ft | 429 kts | 219° |
| 2026-05-04 11:43 | 42.70801 | -7.78842 | 33073 ft | 429 kts | 219° |
| 2026-05-04 11:44 | 42.65932 | -7.83527 | 33073 ft | 428 kts | 219° |
| 2026-05-04 11:44 | 42.61064 | -7.88192 | 33078 ft | 428 kts | 219° |
| 2026-05-04 11:45 | 42.56233 | -7.92807 | 33086 ft | 428 kts | 219° |
| 2026-05-04 11:45 | 42.51360 | -7.97453 | 33087 ft | 428 kts | 219° |
| 2026-05-04 11:46 | 42.46488 | -8.02091 | 33082 ft | 428 kts | 219° |
| 2026-05-04 11:46 | 42.41624 | -8.06707 | 33084 ft | 427 kts | 219° |
| 2026-05-04 11:47 | 42.36790 | -8.11292 | 33082 ft | 427 kts | 219° |
| 2026-05-04 11:47 | 42.31927 | -8.15900 | 33057 ft | 427 kts | 219° |
| 2026-05-04 11:48 | 42.27063 | -8.20500 | 33074 ft | 427 kts | 219° |
| 2026-05-04 11:48 | 42.22198 | -8.25091 | 33083 ft | 427 kts | 219° |
| 2026-05-04 11:49 | 42.17365 | -8.29643 | 33086 ft | 427 kts | 219° |
| 2026-05-04 11:49 | 42.12495 | -8.34212 | 33085 ft | 426 kts | 219° |
| 2026-05-04 11:50 | 42.07628 | -8.38772 | 33067 ft | 426 kts | 219° |
| 2026-05-04 11:50 | 42.02767 | -8.43320 | 33077 ft | 425 kts | 219° |
| 2026-05-04 11:51 | 41.97917 | -8.47865 | 33082 ft | 425 kts | 219° |
| 2026-05-04 11:51 | 41.93087 | -8.52367 | 33096 ft | 425 kts | 219° |
| 2026-05-04 11:52 | 41.88223 | -8.56887 | 33096 ft | 425 kts | 219° |
| 2026-05-04 11:52 | 41.83388 | -8.61442 | 33094 ft | 423 kts | 221° |
| 2026-05-04 11:53 | 41.78830 | -8.66392 | 33103 ft | 421 kts | 225° |
| 2026-05-04 11:53 | 41.74389 | -8.71502 | 33100 ft | 421 kts | 225° |
| 2026-05-04 11:55 | 41.57045 | -8.90490 | 33097 ft | 421 kts | 224° |
| 2026-05-04 11:56 | 41.51768 | -8.96234 | 33119 ft | 421 kts | 224° |
| 2026-05-04 11:56 | 41.47225 | -9.01169 | 33127 ft | 421 kts | 224° |
| 2026-05-04 11:57 | 41.43450 | -9.05259 | 33125 ft | 421 kts | 224° |
| 2026-05-04 11:57 | 41.38907 | -9.10180 | 33104 ft | 421 kts | 224° |
| 2026-05-04 11:58 | 41.33620 | -9.15887 | 33115 ft | 421 kts | 224° |
| 2026-05-04 11:58 | 41.29830 | -9.19967 | 33121 ft | 422 kts | 224° |
| 2026-05-04 11:59 | 41.25272 | -9.24864 | 33129 ft | 422 kts | 224° |
| 2026-05-04 11:59 | 41.20707 | -9.29765 | 33135 ft | 422 kts | 224° |
| 2026-05-04 12:00 | 41.16143 | -9.34663 | 33115 ft | 422 kts | 224° |
| 2026-05-04 12:00 | 41.11577 | -9.39546 | 33131 ft | 421 kts | 224° |
| 2026-05-04 12:01 | 41.07042 | -9.44385 | 33139 ft | 421 kts | 224° |
| 2026-05-04 12:02 | 40.91072 | -9.61360 | 33092 ft | 422 kts | 224° |
| 2026-05-04 12:03 | 40.86482 | -9.66212 | 33110 ft | 423 kts | 224° |
| 2026-05-04 12:03 | 40.81894 | -9.71069 | 33128 ft | 423 kts | 224° |
| 2026-05-04 12:04 | 40.77300 | -9.75911 | 33133 ft | 423 kts | 224° |
| 2026-05-04 12:04 | 40.72733 | -9.80718 | 33139 ft | 423 kts | 224° |
| 2026-05-04 12:05 | 40.68135 | -9.85554 | 33103 ft | 423 kts | 225° |
| 2026-05-04 12:05 | 40.63526 | -9.90388 | 33109 ft | 424 kts | 225° |
| 2026-05-04 12:06 | 40.58939 | -9.95190 | 33117 ft | 424 kts | 224° |
| 2026-05-04 12:06 | 40.54320 | -10.00015 | 33128 ft | 425 kts | 224° |
| 2026-05-04 12:07 | 40.49693 | -10.04842 | 33132 ft | 425 kts | 224° |
| 2026-05-04 12:07 | 40.45063 | -10.09664 | 33097 ft | 425 kts | 225° |
| 2026-05-04 12:08 | 40.40429 | -10.14478 | 33113 ft | 425 kts | 225° |
| 2026-05-04 12:08 | 40.35823 | -10.19256 | 33121 ft | 425 kts | 225° |
| 2026-05-04 12:09 | 40.31193 | -10.24063 | 33117 ft | 425 kts | 225° |
| 2026-05-04 12:09 | 40.26547 | -10.28879 | 33127 ft | 426 kts | 225° |
| 2026-05-04 12:10 | 40.21900 | -10.33673 | 33133 ft | 426 kts | 225° |
| 2026-05-04 12:10 | 40.17275 | -10.38437 | 33139 ft | 426 kts | 225° |
| 2026-05-04 12:11 | 40.12614 | -10.43226 | 33143 ft | 426 kts | 225° |
| 2026-05-04 12:11 | 40.07948 | -10.48008 | 33147 ft | 426 kts | 225° |
| 2026-05-04 12:12 | 40.03282 | -10.52786 | 33153 ft | 426 kts | 225° |
| 2026-05-04 12:12 | 39.98626 | -10.57564 | 33089 ft | 426 kts | 225° |
| 2026-05-04 12:14 | 39.79896 | -10.76627 | 33165 ft | 428 kts | 225° |
| 2026-05-04 12:15 | 39.75234 | -10.81354 | 33164 ft | 428 kts | 225° |
| 2026-05-04 12:15 | 39.70530 | -10.86115 | 33148 ft | 429 kts | 225° |
| 2026-05-04 12:16 | 39.65822 | -10.90871 | 33162 ft | 429 kts | 224° |
| 2026-05-04 12:16 | 39.61144 | -10.95587 | 33139 ft | 429 kts | 224° |
| 2026-05-04 12:17 | 39.56427 | -11.00333 | 33153 ft | 429 kts | 224° |
| 2026-05-04 12:17 | 39.51706 | -11.05082 | 33161 ft | 430 kts | 224° |
| 2026-05-04 12:18 | 39.46992 | -11.09833 | 33149 ft | 430 kts | 224° |
| 2026-05-04 12:18 | 39.42295 | -11.14550 | 33164 ft | 430 kts | 224° |
| 2026-05-04 12:19 | 39.37553 | -11.19277 | 33174 ft | 430 kts | 224° |
| 2026-05-04 12:19 | 39.32811 | -11.23998 | 33177 ft | 430 kts | 224° |
| 2026-05-04 12:20 | 39.28065 | -11.28703 | 33179 ft | 430 kts | 224° |
| 2026-05-04 12:20 | 39.23354 | -11.33377 | 33121 ft | 430 kts | 224° |
| 2026-05-04 12:21 | 39.18616 | -11.38092 | 33136 ft | 430 kts | 224° |
| 2026-05-04 12:21 | 39.13881 | -11.42803 | 33145 ft | 431 kts | 224° |
| 2026-05-04 12:22 | 39.09130 | -11.47509 | 33157 ft | 431 kts | 224° |
| 2026-05-04 12:22 | 39.04364 | -11.52205 | 33166 ft | 432 kts | 224° |
| 2026-05-04 12:23 | 38.99627 | -11.56867 | 33144 ft | 431 kts | 224° |
| 2026-05-04 12:23 | 38.94864 | -11.61567 | 33157 ft | 432 kts | 224° |
| 2026-05-04 12:24 | 38.90092 | -11.66265 | 33169 ft | 432 kts | 224° |
| 2026-05-04 12:24 | 38.85317 | -11.70949 | 33179 ft | 433 kts | 224° |
| 2026-05-04 12:25 | 38.80559 | -11.75594 | 33185 ft | 433 kts | 224° |
| 2026-05-04 12:25 | 38.75767 | -11.80267 | 33192 ft | 433 kts | 224° |
| 2026-05-04 12:26 | 38.70985 | -11.84939 | 33169 ft | 432 kts | 224° |
| 2026-05-04 12:26 | 38.66201 | -11.89598 | 33172 ft | 432 kts | 224° |
| 2026-05-04 12:27 | 38.61452 | -11.94216 | 33184 ft | 432 kts | 224° |
| 2026-05-04 12:27 | 38.56661 | -11.98877 | 33190 ft | 432 kts | 224° |
| 2026-05-04 12:28 | 38.51873 | -12.03517 | 33190 ft | 432 kts | 224° |
| 2026-05-04 12:28 | 38.47071 | -12.08152 | 33156 ft | 433 kts | 224° |
| 2026-05-04 12:29 | 38.42295 | -12.12754 | 33173 ft | 433 kts | 224° |
| 2026-05-04 12:29 | 38.37484 | -12.17389 | 33182 ft | 433 kts | 224° |
| 2026-05-04 12:30 | 38.32675 | -12.22022 | 33192 ft | 434 kts | 224° |
| 2026-05-04 12:30 | 38.27863 | -12.26650 | 33197 ft | 433 kts | 224° |
| 2026-05-04 12:31 | 38.23046 | -12.31268 | 33168 ft | 433 kts | 223° |
| 2026-05-04 12:31 | 38.18263 | -12.35850 | 33186 ft | 433 kts | 223° |
| 2026-05-04 12:32 | 38.11040 | -12.42755 | 33177 ft | 434 kts | 224° |
| 2026-05-04 12:33 | 38.06216 | -12.47360 | 33187 ft | 434 kts | 223° |
| 2026-05-04 12:33 | 38.01382 | -12.51957 | 33201 ft | 434 kts | 223° |
| 2026-05-04 12:34 | 37.96577 | -12.56521 | 33170 ft | 434 kts | 223° |
| 2026-05-04 12:34 | 37.91739 | -12.61109 | 33190 ft | 434 kts | 223° |
| 2026-05-04 12:35 | 37.86895 | -12.65685 | 33213 ft | 435 kts | 223° |
| 2026-05-04 12:35 | 37.82050 | -12.70262 | 33211 ft | 434 kts | 223° |
| 2026-05-04 12:36 | 37.77213 | -12.74848 | 33212 ft | 435 kts | 223° |
| 2026-05-04 12:36 | 37.72403 | -12.79378 | 33202 ft | 434 kts | 223° |
| 2026-05-04 12:37 | 37.67541 | -12.83932 | 33211 ft | 435 kts | 223° |
| 2026-05-04 12:37 | 37.62693 | -12.88475 | 33210 ft | 434 kts | 223° |
| 2026-05-04 12:38 | 37.61374 | -12.89714 | 33213 ft | 434 kts | 223° |
| 2026-05-04 12:38 | 37.56598 | -12.94198 | 33214 ft | 434 kts | 223° |
| 2026-05-04 12:39 | 37.51751 | -12.98739 | 33212 ft | 434 kts | 223° |
| 2026-05-04 12:39 | 37.46906 | -13.03270 | 33211 ft | 434 kts | 223° |
| 2026-05-04 12:40 | 37.42062 | -13.07790 | 33195 ft | 433 kts | 223° |
| 2026-05-04 12:40 | 37.37223 | -13.12301 | 33204 ft | 433 kts | 223° |
| 2026-05-04 12:41 | 37.32411 | -13.16770 | 33209 ft | 433 kts | 222° |
| 2026-05-04 12:41 | 37.27573 | -13.21256 | 33222 ft | 432 kts | 222° |
| 2026-05-04 12:42 | 37.22729 | -13.25747 | 33217 ft | 432 kts | 222° |
| 2026-05-04 12:42 | 37.17896 | -13.30217 | 33196 ft | 432 kts | 221° |
| 2026-05-04 12:43 | 37.13092 | -13.34646 | 33204 ft | 431 kts | 221° |
| 2026-05-04 12:43 | 37.08262 | -13.39097 | 33213 ft | 431 kts | 221° |
| 2026-05-04 12:44 | 37.03431 | -13.43540 | 33212 ft | 431 kts | 221° |
| 2026-05-04 12:44 | 36.98606 | -13.47978 | 33215 ft | 431 kts | 221° |
| 2026-05-04 12:45 | 36.93804 | -13.52396 | 33189 ft | 431 kts | 221° |
| 2026-05-04 12:45 | 36.88974 | -13.56812 | 33212 ft | 430 kts | 220° |
| 2026-05-04 12:46 | 36.84141 | -13.61221 | 33218 ft | 430 kts | 221° |
| 2026-05-04 12:46 | 36.79319 | -13.65627 | 33221 ft | 429 kts | 221° |
| 2026-05-04 12:47 | 36.74420 | -13.69900 | 33217 ft | 431 kts | 217° |
| 2026-05-04 12:47 | 36.69333 | -13.73765 | 33217 ft | 432 kts | 215° |
| 2026-05-04 12:48 | 36.64154 | -13.77556 | 33204 ft | 431 kts | 216° |
| 2026-05-04 12:48 | 36.59019 | -13.81415 | 33214 ft | 431 kts | 216° |
| 2026-05-04 12:49 | 36.53919 | -13.85328 | 33209 ft | 431 kts | 217° |
| 2026-05-04 12:49 | 36.48854 | -13.89216 | 33223 ft | 431 kts | 216° |
| 2026-05-04 12:50 | 36.43748 | -13.93101 | 33223 ft | 430 kts | 216° |
| 2026-05-04 12:50 | 36.38631 | -13.96956 | 33209 ft | 429 kts | 217° |
| 2026-05-04 12:51 | 36.33539 | -14.00801 | 33222 ft | 428 kts | 217° |
| 2026-05-04 12:51 | 36.28498 | -14.04618 | 33224 ft | 427 kts | 217° |
| 2026-05-04 12:52 | 36.23443 | -14.08445 | 33223 ft | 426 kts | 217° |
| 2026-05-04 12:52 | 36.18389 | -14.12266 | 33221 ft | 425 kts | 217° |
| 2026-05-04 12:53 | 36.13333 | -14.16068 | 33202 ft | 425 kts | 218° |
| 2026-05-04 12:53 | 36.08322 | -14.19828 | 33222 ft | 423 kts | 218° |
| 2026-05-04 12:54 | 36.03290 | -14.23598 | 33223 ft | 422 kts | 218° |
| 2026-05-04 12:54 | 35.98271 | -14.27354 | 33219 ft | 422 kts | 218° |
| 2026-05-04 12:55 | 35.93254 | -14.31107 | 33217 ft | 421 kts | 218° |
| 2026-05-04 12:55 | 35.88282 | -14.34827 | 33215 ft | 421 kts | 218° |
| 2026-05-04 12:56 | 35.83276 | -14.38555 | 33201 ft | 420 kts | 217° |
| 2026-05-04 12:56 | 35.78275 | -14.42278 | 33208 ft | 420 kts | 218° |
| 2026-05-04 12:57 | 35.73276 | -14.45999 | 33213 ft | 420 kts | 218° |
| 2026-05-04 12:57 | 35.68273 | -14.49712 | 33213 ft | 420 kts | 217° |
| 2026-05-04 12:58 | 35.64964 | -14.52164 | 33212 ft | 419 kts | 217° |
| 2026-05-04 12:58 | 35.61647 | -14.54616 | 33209 ft | 419 kts | 217° |
| 2026-05-04 13:00 | 35.61225 | -14.54928 | 33184 ft | 419 kts | 217° |
| 2026-05-04 13:00 | 35.59107 | -14.56286 | 34970 ft | 342 kts | 214° |
| 2026-05-04 13:01 | 35.56974 | -14.57593 | 35154 ft | 347 kts | 216° |
| 2026-05-04 13:01 | 35.54854 | -14.59140 | 34054 ft | 364 kts | 220° |
| 2026-05-04 13:01 | 35.52696 | -14.60900 | 33453 ft | 381 kts | 220° |
| 2026-05-04 13:01 | 35.50461 | -14.62746 | 33237 ft | 393 kts | 220° |
| 2026-05-04 13:02 | 35.48141 | -14.64606 | 33184 ft | 402 kts | 219° |
| 2026-05-04 13:02 | 35.43301 | -14.68272 | 33196 ft | 415 kts | 217° |
| 2026-05-04 13:03 | 35.38319 | -14.71949 | 33196 ft | 419 kts | 217° |
| 2026-05-04 13:03 | 35.33339 | -14.75606 | 33168 ft | 421 kts | 217° |
| 2026-05-04 13:04 | 35.28328 | -14.79280 | 33193 ft | 420 kts | 217° |
| 2026-05-04 13:04 | 35.23309 | -14.82941 | 33194 ft | 420 kts | 217° |
| 2026-05-04 13:05 | 35.18294 | -14.86602 | 33197 ft | 420 kts | 217° |
| 2026-05-04 13:05 | 35.13316 | -14.90239 | 33199 ft | 420 kts | 217° |
| 2026-05-04 13:06 | 35.08298 | -14.93899 | 33203 ft | 420 kts | 217° |
| 2026-05-04 13:06 | 35.03280 | -14.97552 | 33202 ft | 420 kts | 217° |
| 2026-05-04 13:07 | 34.98260 | -15.01199 | 33201 ft | 420 kts | 217° |
| 2026-05-04 13:07 | 34.93235 | -15.04849 | 33201 ft | 420 kts | 217° |
| 2026-05-04 13:08 | 34.88209 | -15.08492 | 33204 ft | 420 kts | 217° |
| 2026-05-04 13:08 | 34.83214 | -15.12106 | 33205 ft | 420 kts | 217° |
| 2026-05-04 13:09 | 34.78189 | -15.15734 | 33180 ft | 420 kts | 217° |
| 2026-05-04 13:09 | 34.73157 | -15.19359 | 33197 ft | 420 kts | 217° |
| 2026-05-04 13:10 | 34.68127 | -15.22977 | 33190 ft | 420 kts | 217° |
| 2026-05-04 13:10 | 34.63097 | -15.26598 | 33197 ft | 420 kts | 217° |
| 2026-05-04 13:11 | 34.58104 | -15.30191 | 33209 ft | 420 kts | 217° |
| 2026-05-04 13:11 | 34.53073 | -15.33803 | 33202 ft | 420 kts | 217° |
| 2026-05-04 13:12 | 34.48037 | -15.37410 | 33180 ft | 421 kts | 216° |
| 2026-05-04 13:12 | 34.43002 | -15.41019 | 33193 ft | 421 kts | 216° |
| 2026-05-04 13:13 | 34.37958 | -15.44623 | 33185 ft | 421 kts | 216° |
| 2026-05-04 13:13 | 34.35436 | -15.46424 | 33052 ft | 421 kts | 216° |
| 2026-05-04 13:13 | 34.32921 | -15.48215 | 32789 ft | 420 kts | 216° |
| 2026-05-04 13:13 | 34.30428 | -15.49988 | 32533 ft | 420 kts | 216° |
| 2026-05-04 13:14 | 34.27912 | -15.51776 | 32274 ft | 421 kts | 216° |
| 2026-05-04 13:14 | 34.25387 | -15.53573 | 32023 ft | 421 kts | 216° |
| 2026-05-04 13:14 | 34.22859 | -15.55374 | 31737 ft | 422 kts | 215° |
| 2026-05-04 13:14 | 34.20326 | -15.57182 | 31483 ft | 423 kts | 215° |
| 2026-05-04 13:15 | 34.17786 | -15.58996 | 31244 ft | 424 kts | 215° |
| 2026-05-04 13:15 | 34.15243 | -15.60807 | 31011 ft | 424 kts | 215° |
| 2026-05-04 13:15 | 34.12706 | -15.62607 | 30756 ft | 423 kts | 215° |
| 2026-05-04 13:15 | 34.10185 | -15.64386 | 30297 ft | 417 kts | 214° |
| 2026-05-04 13:16 | 34.07725 | -15.66121 | 29738 ft | 412 kts | 215° |
| 2026-05-04 13:16 | 34.05268 | -15.67856 | 29250 ft | 406 kts | 215° |
| 2026-05-04 13:16 | 34.02847 | -15.69565 | 28754 ft | 400 kts | 215° |
| 2026-05-04 13:16 | 34.00460 | -15.71251 | 28260 ft | 395 kts | 215° |
| 2026-05-04 13:17 | 33.98108 | -15.72912 | 27777 ft | 390 kts | 214° |
| 2026-05-04 13:17 | 33.95791 | -15.74544 | 27478 ft | 380 kts | 214° |
| 2026-05-04 13:17 | 33.93545 | -15.76122 | 27354 ft | 367 kts | 214° |
| 2026-05-04 13:17 | 33.91375 | -15.77648 | 27099 ft | 358 kts | 214° |
| 2026-05-04 13:18 | 33.89242 | -15.79153 | 26554 ft | 352 kts | 214° |
| 2026-05-04 13:18 | 33.87146 | -15.80638 | 25664 ft | 358 kts | 214° |
| 2026-05-04 13:18 | 33.84996 | -15.82162 | 25160 ft | 355 kts | 214° |
| 2026-05-04 13:18 | 33.82892 | -15.83641 | 24761 ft | 346 kts | 214° |
| 2026-05-04 13:19 | 33.80827 | -15.85089 | 24184 ft | 341 kts | 214° |
| 2026-05-04 13:19 | 33.78794 | -15.86513 | 23839 ft | 338 kts | 214° |
| 2026-05-04 13:19 | 33.76757 | -15.87946 | 23665 ft | 340 kts | 214° |
| 2026-05-04 13:19 | 33.74711 | -15.89389 | 23584 ft | 341 kts | 214° |
| 2026-05-04 13:20 | 33.72673 | -15.90822 | 23495 ft | 340 kts | 214° |
| 2026-05-04 13:20 | 33.70666 | -15.92229 | 23106 ft | 337 kts | 214° |
| 2026-05-04 13:20 | 33.68640 | -15.93645 | 22590 ft | 336 kts | 213° |
| 2026-05-04 13:20 | 33.66628 | -15.95048 | 22131 ft | 334 kts | 214° |
| 2026-05-04 13:21 | 33.64652 | -15.96489 | 21650 ft | 331 kts | 215° |
| 2026-05-04 13:21 | 33.62713 | -15.97971 | 21193 ft | 329 kts | 216° |
| 2026-05-04 13:21 | 33.60802 | -15.99460 | 20746 ft | 327 kts | 216° |
| 2026-05-04 13:21 | 33.58904 | -16.00944 | 20348 ft | 324 kts | 216° |
| 2026-05-04 13:22 | 33.57016 | -16.02421 | 19876 ft | 324 kts | 216° |
| 2026-05-04 13:22 | 33.55128 | -16.03887 | 19422 ft | 323 kts | 215° |
| 2026-05-04 13:22 | 33.53271 | -16.05319 | 18995 ft | 321 kts | 215° |
| 2026-05-04 13:22 | 33.51393 | -16.06757 | 18569 ft | 320 kts | 215° |
| 2026-05-04 13:23 | 33.49512 | -16.08193 | 18145 ft | 319 kts | 215° |
| 2026-05-04 13:23 | 33.47645 | -16.09615 | 17719 ft | 317 kts | 215° |
| 2026-05-04 13:23 | 33.45787 | -16.11029 | 17268 ft | 315 kts | 215° |
| 2026-05-04 13:23 | 33.43945 | -16.12432 | 16812 ft | 313 kts | 215° |
| 2026-05-04 13:24 | 33.42108 | -16.13833 | 16381 ft | 312 kts | 214° |
| 2026-05-04 13:24 | 33.40287 | -16.15219 | 15943 ft | 310 kts | 214° |
| 2026-05-04 13:24 | 33.38470 | -16.16604 | 15529 ft | 309 kts | 214° |
| 2026-05-04 13:25 | 33.34888 | -16.19339 | 14707 ft | 306 kts | 214° |
| 2026-05-04 13:25 | 33.33082 | -16.20720 | 14296 ft | 304 kts | 214° |
| 2026-05-04 13:25 | 33.31328 | -16.22061 | 13897 ft | 303 kts | 214° |
| 2026-05-04 13:25 | 33.29554 | -16.23412 | 13457 ft | 301 kts | 214° |
| 2026-05-04 13:26 | 33.27787 | -16.24757 | 13033 ft | 299 kts | 214° |
| 2026-05-04 13:26 | 33.26036 | -16.26087 | 12619 ft | 297 kts | 214° |
| 2026-05-04 13:26 | 33.24297 | -16.27407 | 12211 ft | 295 kts | 214° |
| 2026-05-04 13:26 | 33.22568 | -16.28719 | 11827 ft | 293 kts | 214° |
| 2026-05-04 13:27 | 33.20847 | -16.30022 | 11423 ft | 292 kts | 214° |
| 2026-05-04 13:27 | 33.19141 | -16.31314 | 11053 ft | 290 kts | 214° |
| 2026-05-04 13:27 | 33.17447 | -16.32599 | 10667 ft | 288 kts | 214° |
| 2026-05-04 13:27 | 33.15762 | -16.33877 | 10300 ft | 286 kts | 213° |
| 2026-05-04 13:28 | 33.14109 | -16.35129 | 9942 ft | 284 kts | 213° |
| 2026-05-04 13:28 | 33.12443 | -16.36391 | 9540 ft | 282 kts | 213° |
| 2026-05-04 13:28 | 33.10790 | -16.37644 | 9127 ft | 281 kts | 213° |
| 2026-05-04 13:28 | 33.09143 | -16.38891 | 8726 ft | 280 kts | 213° |
| 2026-05-04 13:29 | 33.07506 | -16.40132 | 8339 ft | 278 kts | 213° |
| 2026-05-04 13:29 | 33.05875 | -16.41366 | 8016 ft | 277 kts | 213° |
| 2026-05-04 13:29 | 33.04251 | -16.42594 | 7697 ft | 276 kts | 213° |
| 2026-05-04 13:29 | 33.02654 | -16.43799 | 7377 ft | 275 kts | 213° |
| 2026-05-04 13:30 | 33.01042 | -16.45013 | 7068 ft | 274 kts | 212° |
| 2026-05-04 13:30 | 32.99436 | -16.46221 | 6770 ft | 272 kts | 212° |
| 2026-05-04 13:30 | 32.97836 | -16.47423 | 6463 ft | 271 kts | 212° |
| 2026-05-04 13:30 | 32.96244 | -16.48621 | 6181 ft | 270 kts | 212° |
| 2026-05-04 13:31 | 32.94659 | -16.49816 | 5878 ft | 269 kts | 212° |
| 2026-05-04 13:31 | 32.93084 | -16.51011 | 5574 ft | 268 kts | 215° |
| 2026-05-04 13:31 | 32.91665 | -16.52444 | 5279 ft | 267 kts | 222° |
| 2026-05-04 13:31 | 32.90295 | -16.53915 | 4987 ft | 263 kts | 221° |
| 2026-05-04 13:32 | 32.88943 | -16.55359 | 4679 ft | 259 kts | 221° |
| 2026-05-04 13:32 | 32.87641 | -16.56747 | 4494 ft | 251 kts | 221° |
| 2026-05-04 13:32 | 32.86350 | -16.58122 | 4186 ft | 248 kts | 221° |
| 2026-05-04 13:32 | 32.85076 | -16.59484 | 3866 ft | 244 kts | 221° |
| 2026-05-04 13:33 | 32.83838 | -16.60806 | 3559 ft | 235 kts | 221° |
| 2026-05-04 13:33 | 32.82649 | -16.62076 | 3251 ft | 225 kts | 221° |
| 2026-05-04 13:33 | 32.81513 | -16.63289 | 2954 ft | 214 kts | 221° |
| 2026-05-04 13:33 | 32.80441 | -16.64433 | 2702 ft | 200 kts | 220° |
| 2026-05-04 13:34 | 32.79451 | -16.65490 | 2468 ft | 181 kts | 221° |
| 2026-05-04 13:34 | 32.78564 | -16.66436 | 2284 ft | 161 kts | 214° |
| 2026-05-04 13:34 | 32.77770 | -16.67277 | 2096 ft | 148 kts | 220° |
| 2026-05-04 13:34 | 32.77025 | -16.68073 | 1922 ft | 144 kts | 221° |
| 2026-05-04 13:35 | 32.76282 | -16.68863 | 1746 ft | 144 kts | 220° |
| 2026-05-04 13:35 | 32.74881 | -16.70548 | 1428 ft | 142 kts | 229° |
| 2026-05-04 13:35 | 32.74279 | -16.71507 | 1286 ft | 146 kts | 232° |
| 2026-05-04 13:36 | 32.73708 | -16.72502 | 1106 ft | 146 kts | 232° |
| 2026-05-04 13:36 | 32.73057 | -16.73421 | 882 ft | 145 kts | 225° |
| 2026-05-04 13:36 | 32.72398 | -16.74328 | 721 ft | 146 kts | 226° |
| 2026-05-04 13:36 | 32.71694 | -16.75203 | 544 ft | 146 kts | 224° |
| 2026-05-04 13:37 | 32.70984 | -16.76050 | 364 ft | 147 kts | 221° |
| 2026-05-04 13:37 | 32.70263 | -16.76893 | 203 ft | 141 kts | 222° |
| 2026-05-04 13:37 | 32.69732 | -16.77507 | 182 ft | 88 kts | 224° |
| 2026-05-04 13:37 | 32.69540 | -16.77734 | 174 ft | 31 kts | 225° |
| 2026-05-04 13:38 | 32.69369 | -16.77935 | 170 ft | 15 kts | 224° |
| 2026-05-04 13:38 | 32.69298 | -16.77948 | 169 ft | 11 kts | 137° |
| 2026-05-04 13:38 | 32.69290 | -16.77868 | 169 ft | 10 kts | 72° |
| 2026-05-04 13:38 | 32.69335 | -16.77799 | 169 ft | 11 kts | 47° |
| 2026-05-04 13:39 | 32.69386 | -16.77736 | 169 ft | 8 kts | 46° |
| 2026-05-04 13:39 | 32.69398 | -16.77714 | 169 ft | 2 kts | 78° |
| 2026-05-04 13:39 | 32.69389 | -16.77696 | 169 ft | 3 kts | 133° |
| 2026-05-04 13:39 | 32.69371 | -16.77675 | 169 ft | 3 kts | 137° |
| 2026-05-04 13:40 | 32.69361 | -16.77664 | 169 ft | 1 kts | 137° |
| 2026-05-04 13:40 | 32.69359 | -16.77661 | 169 ft | 0 kts | 137° |